createdAt,value
2018-01-17T00:00:41.445Z,2.47
2018-01-17T00:03:07.993Z,3.23
2018-01-17T00:05:34.298Z,2.97
2018-01-17T00:08:00.571Z,1.87
2018-01-17T00:10:27.122Z,3.27
2018-01-17T00:12:53.393Z,1.90
2018-01-17T00:15:20.434Z,1.97
2018-01-17T00:17:46.775Z,1.53
2018-01-17T00:20:13.051Z,4.30
2018-01-17T00:22:41.093Z,2.80
2018-01-17T00:25:07.406Z,3.20
2018-01-17T00:27:33.702Z,1.70
2018-01-17T00:30:00.793Z,2.20
2018-01-17T00:32:27.073Z,2.40
2018-01-17T00:34:53.372Z,1.23
2018-01-17T00:37:19.699Z,0.40
2018-01-17T00:39:46.011Z,3.63
2018-01-17T00:42:12.323Z,0.27
2018-01-17T00:44:38.606Z,1.10
2018-01-17T00:47:04.944Z,2.63
2018-01-17T00:49:31.217Z,1.60
2018-01-17T00:51:57.526Z,2.07
2018-01-17T00:54:24.526Z,2.27
2018-01-17T00:56:50.794Z,0.77
2018-01-17T00:59:17.099Z,0.33
2018-01-17T01:01:43.383Z,0.87
2018-01-17T01:04:09.757Z,2.83
2018-01-17T01:06:36.049Z,1.53
2018-01-17T01:09:02.376Z,0.60
2018-01-17T01:11:28.682Z,0.77
2018-01-17T01:13:54.961Z,2.20
2018-01-17T01:16:21.295Z,2.07
2018-01-17T01:18:47.595Z,1.30
2018-01-17T01:21:13.857Z,0.43
2018-01-17T01:23:40.186Z,0.20
2018-01-17T01:26:06.466Z,0.27
2018-01-17T01:28:32.746Z,0.73
2018-01-17T01:30:59.059Z,1.23
2018-01-17T01:33:25.350Z,0.20
2018-01-17T01:35:51.642Z,0.10
2018-01-17T01:38:17.925Z,0.10
2018-01-17T01:40:44.938Z,0.00
2018-01-17T01:43:11.241Z,0.30
2018-01-17T01:45:37.528Z,0.17
2018-01-17T01:48:04.530Z,0.20
2018-01-17T01:50:30.832Z,0.43
2018-01-17T01:52:57.905Z,0.00
2018-01-17T01:55:24.236Z,0.97
2018-01-17T01:57:50.525Z,0.93
2018-01-17T02:00:16.811Z,0.07
2018-01-17T02:02:43.872Z,0.77
2018-01-17T02:05:10.205Z,0.67
2018-01-17T02:07:36.543Z,0.10
2018-01-17T02:10:02.847Z,0.10
2018-01-17T02:12:29.136Z,0.00
2018-01-17T02:14:55.431Z,0.83
2018-01-17T02:17:22.465Z,0.43
2018-01-17T02:19:49.513Z,0.00
2018-01-17T02:22:15.828Z,0.00
2018-01-17T02:24:42.111Z,0.10
2018-01-17T02:27:08.423Z,0.00
2018-01-17T02:29:34.753Z,2.13
2018-01-17T02:32:01.787Z,0.10
2018-01-17T02:34:28.845Z,0.60
2018-01-17T02:36:55.149Z,0.00
2018-01-17T02:39:21.469Z,0.03
2018-01-17T02:41:47.774Z,0.00
2018-01-17T02:44:14.819Z,0.47
2018-01-17T02:46:41.101Z,0.20
2018-01-17T02:49:08.166Z,0.03
2018-01-17T02:51:34.476Z,0.30
2018-01-17T02:54:00.749Z,0.07
2018-01-17T02:56:27.045Z,0.20
2018-01-17T02:58:53.348Z,0.00
2018-01-17T03:01:19.640Z,0.00
2018-01-17T03:03:45.930Z,0.00
2018-01-17T03:06:12.209Z,0.00
2018-01-17T03:08:38.507Z,0.00
2018-01-17T03:11:04.824Z,0.23
2018-01-17T03:13:31.116Z,0.00
2018-01-17T03:15:57.392Z,0.00
2018-01-17T03:18:23.725Z,0.63
2018-01-17T03:20:50.751Z,0.00
2018-01-17T03:23:17.089Z,0.00
2018-01-17T03:25:44.109Z,0.00
2018-01-17T03:28:11.122Z,0.10
2018-01-17T03:30:37.392Z,0.53
2018-01-17T03:33:03.748Z,0.10
2018-01-17T03:35:30.050Z,0.10
2018-01-17T03:37:56.380Z,0.00
2018-01-17T03:40:22.652Z,0.10
2018-01-17T03:42:49.112Z,1.67
2018-01-17T03:45:15.406Z,0.00
2018-01-17T03:47:41.705Z,0.20
2018-01-17T03:50:08.009Z,0.10
2018-01-17T03:52:34.290Z,1.20
2018-01-17T03:55:00.571Z,0.67
2018-01-17T03:57:26.872Z,1.33
2018-01-17T03:59:53.166Z,0.10
2018-01-17T04:02:19.484Z,0.30
2018-01-17T04:04:45.761Z,0.03
2018-01-17T04:07:12.086Z,0.23
2018-01-17T04:09:39.137Z,0.00
2018-01-17T04:12:06.130Z,0.10
2018-01-17T04:14:32.433Z,0.00
2018-01-17T04:16:58.719Z,0.10
2018-01-17T04:19:25.011Z,0.10
2018-01-17T04:21:52.035Z,0.10
2018-01-17T04:24:19.050Z,0.10
2018-01-17T04:26:45.343Z,0.07
2018-01-17T04:29:11.609Z,0.70
2018-01-17T04:31:37.853Z,1.70
2018-01-17T04:34:04.150Z,0.67
2018-01-17T04:36:30.555Z,0.00
2018-01-17T04:38:56.870Z,0.20
2018-01-17T04:41:23.883Z,0.33
2018-01-17T04:43:50.180Z,0.67
2018-01-17T04:46:16.496Z,0.43
2018-01-17T04:48:42.796Z,0.00
2018-01-17T04:51:09.098Z,0.00
2018-01-17T04:53:35.432Z,1.27
2018-01-17T04:56:01.695Z,0.47
2018-01-17T04:58:29.966Z,1.13
2018-01-17T05:00:56.230Z,1.63
2018-01-17T05:03:25.528Z,0.37
2018-01-17T05:05:54.646Z,1.63
2018-01-17T05:08:24.093Z,0.10
2018-01-17T05:10:50.420Z,1.50
2018-01-17T05:13:17.442Z,0.80
2018-01-17T05:15:43.738Z,0.47
2018-01-17T05:18:10.020Z,2.20
2018-01-17T05:20:36.348Z,0.13
2018-01-17T05:23:02.677Z,0.83
2018-01-17T05:25:28.966Z,1.30
2018-01-17T05:27:55.267Z,1.23
2018-01-17T05:30:21.562Z,1.87
2018-01-17T05:32:47.927Z,1.10
2018-01-17T05:35:14.227Z,2.20
2018-01-17T05:37:40.550Z,3.50
2018-01-17T05:40:06.984Z,1.80
2018-01-17T05:42:33.312Z,4.20
2018-01-17T05:44:59.624Z,0.97
2018-01-17T05:47:25.906Z,3.43
2018-01-17T05:49:52.203Z,1.57
2018-01-17T05:52:19.218Z,1.60
2018-01-17T05:54:46.250Z,6.57
2018-01-17T05:57:12.556Z,2.83
2018-01-17T05:59:39.084Z,0.40
2018-01-17T06:02:06.147Z,2.80
2018-01-17T06:04:32.442Z,3.17
2018-01-17T06:06:59.127Z,1.23
2018-01-17T06:09:25.533Z,2.30
2018-01-17T06:11:51.830Z,5.37
2018-01-17T06:14:18.131Z,2.20
2018-01-17T06:16:45.160Z,2.83
2018-01-17T06:19:12.273Z,1.03
2018-01-17T06:21:38.583Z,0.80
2018-01-17T06:24:05.088Z,1.17
2018-01-17T06:26:31.395Z,2.10
2018-01-17T06:28:57.695Z,1.97
2018-01-17T06:31:25.075Z,0.97
2018-01-17T06:33:51.435Z,2.47
2018-01-17T06:36:18.760Z,1.63
2018-01-17T06:38:45.706Z,0.10
2018-01-17T06:41:11.985Z,1.07
2018-01-17T06:43:38.602Z,2.63
2018-01-17T06:46:06.109Z,0.00
2018-01-17T06:48:32.387Z,0.20
2018-01-17T06:50:59.178Z,0.00
2018-01-17T06:53:25.551Z,0.77
2018-01-17T06:55:51.866Z,0.10
2018-01-17T06:58:18.571Z,28.53
2018-01-17T07:00:45.606Z,0.67
2018-01-17T07:03:12.673Z,0.00
2018-01-17T07:05:38.929Z,0.00
2018-01-17T07:08:07.347Z,0.23
2018-01-17T07:10:43.698Z,0.00
2018-01-17T07:13:18.961Z,1.13
2018-01-17T07:15:53.230Z,0.00
2018-01-17T07:18:21.691Z,0.00
2018-01-17T07:20:49.599Z,0.10
2018-01-17T07:23:16.769Z,0.27
2018-01-17T07:25:44.052Z,0.20
2018-01-17T07:28:10.379Z,0.83
2018-01-17T07:30:39.298Z,2.60
2018-01-17T07:33:05.582Z,1.83
2018-01-17T07:35:31.909Z,0.60
2018-01-17T07:38:00.024Z,30.80
2018-01-17T07:40:26.368Z,2.07
2018-01-17T07:42:54.873Z,0.97
2018-01-17T07:45:21.287Z,1.90
2018-01-17T07:47:47.643Z,3.60
2018-01-17T07:50:14.131Z,2.90
2018-01-17T07:52:40.431Z,4.43
2018-01-17T07:55:06.755Z,1.03
2018-01-17T07:57:33.360Z,1.70
2018-01-17T08:00:01.950Z,3.17
2018-01-17T08:02:30.743Z,3.73
2018-01-17T08:04:58.710Z,1.13
2018-01-17T08:07:25.002Z,2.00
2018-01-17T08:09:51.338Z,2.33
2018-01-17T08:12:17.643Z,0.37
2018-01-17T08:14:44.651Z,1.63
2018-01-17T08:17:11.689Z,1.50
2018-01-17T08:19:37.988Z,2.67
2018-01-17T08:22:04.422Z,2.80
2018-01-17T08:24:30.714Z,24.63
2018-01-17T08:26:57.782Z,12.27
2018-01-17T08:29:24.156Z,8.90
2018-01-17T08:31:51.432Z,2.53
2018-01-17T08:34:17.695Z,4.97
2018-01-17T08:36:44.885Z,3.13
2018-01-17T08:39:11.221Z,3.43
2018-01-17T08:41:37.518Z,6.53
2018-01-17T08:44:03.819Z,9.70
2018-01-17T08:46:30.172Z,4.60
2018-01-17T08:48:56.568Z,3.57
2018-01-17T08:51:22.898Z,5.90
2018-01-17T08:53:50.027Z,7.13
2018-01-17T08:56:17.193Z,4.63
2018-01-17T08:58:44.346Z,10.27
2018-01-17T09:01:10.658Z,10.60
2018-01-17T09:03:36.939Z,4.67
2018-01-17T09:06:04.080Z,6.40
2018-01-17T09:08:30.530Z,5.60
2018-01-17T09:10:56.825Z,8.33
2018-01-17T09:13:23.115Z,7.13
2018-01-17T09:15:49.406Z,4.83
2018-01-17T09:18:17.072Z,9.17
2018-01-17T09:20:43.377Z,4.33
2018-01-17T09:23:09.726Z,8.37
2018-01-17T09:25:36.644Z,5.07
2018-01-17T09:28:03.661Z,6.33
2018-01-17T09:30:30.418Z,4.53
2018-01-17T09:32:56.722Z,6.67
2018-01-17T09:35:23.029Z,4.20
2018-01-17T09:37:50.092Z,2.87
2018-01-17T09:40:16.437Z,4.50
2018-01-17T09:42:43.457Z,4.90
2018-01-17T09:45:09.734Z,5.30
2018-01-17T09:47:36.027Z,4.07
2018-01-17T09:50:02.729Z,3.87
2018-01-17T09:52:30.064Z,6.60
2018-01-17T09:54:56.464Z,12.70
2018-01-17T09:57:22.881Z,6.63
2018-01-17T09:59:49.278Z,7.60
2018-01-17T10:02:15.594Z,8.07
2018-01-17T10:04:41.910Z,5.80
2018-01-17T10:07:08.267Z,5.87
2018-01-17T10:09:35.419Z,10.83
2018-01-17T10:12:01.716Z,4.07
2018-01-17T10:14:28.480Z,6.93
2018-01-17T10:16:54.779Z,9.93
2018-01-17T10:19:21.940Z,4.37
2018-01-17T10:21:49.311Z,2.80
2018-01-17T10:24:15.599Z,5.17
2018-01-17T10:26:41.917Z,2.37
2018-01-17T10:29:08.180Z,5.33
2018-01-17T10:31:35.222Z,5.80
2018-01-17T10:34:01.554Z,10.97
2018-01-17T10:36:27.825Z,7.40
2018-01-17T10:38:54.143Z,5.90
2018-01-17T10:41:21.645Z,7.47
2018-01-17T10:43:49.652Z,1.80
2018-01-17T10:46:16.675Z,5.43
2018-01-17T10:48:42.966Z,4.97
2018-01-17T10:51:09.286Z,2.83
2018-01-17T10:53:44.847Z,7.20
2018-01-17T10:56:11.222Z,7.67
2018-01-17T10:58:37.502Z,8.67
2018-01-17T11:01:04.525Z,2.00
2018-01-17T11:03:30.832Z,3.13
2018-01-17T11:05:57.102Z,6.27
2018-01-17T11:08:23.434Z,2.00
2018-01-17T11:10:49.791Z,8.23
2018-01-17T11:13:16.078Z,3.27
2018-01-17T11:15:42.472Z,4.73
2018-01-17T11:18:08.822Z,3.30
2018-01-17T11:20:35.104Z,2.60
2018-01-17T11:23:01.426Z,8.10
2018-01-17T11:25:27.691Z,9.50
2018-01-17T11:27:53.965Z,5.80
2018-01-17T11:30:21.081Z,4.77
2018-01-17T11:32:47.366Z,7.33
2018-01-17T11:35:13.663Z,2.60
2018-01-17T11:37:40.714Z,2.23
2018-01-17T11:40:07.093Z,6.40
2018-01-17T11:42:33.414Z,9.77
2018-01-17T11:44:59.701Z,6.97
2018-01-17T11:47:26.036Z,3.00
2018-01-17T11:49:52.390Z,2.23
2018-01-17T11:52:18.658Z,7.33
2018-01-17T11:54:44.980Z,2.83
2018-01-17T11:57:11.282Z,7.53
2018-01-17T11:59:37.663Z,5.23
2018-01-17T12:02:03.945Z,3.33
2018-01-17T12:04:30.247Z,4.40
2018-01-17T12:06:56.568Z,3.77
2018-01-17T12:09:22.838Z,4.13
2018-01-17T12:11:49.135Z,5.00
2018-01-17T12:14:15.493Z,7.27
2018-01-17T12:16:41.853Z,5.13
2018-01-17T12:19:08.905Z,2.63
2018-01-17T12:21:35.180Z,7.90
2018-01-17T12:24:01.508Z,3.77
2018-01-17T12:26:28.535Z,6.03
2018-01-17T12:28:55.554Z,9.40
2018-01-17T12:31:21.918Z,3.83
2018-01-17T12:33:48.214Z,4.03
2018-01-17T12:36:14.523Z,5.27
2018-01-17T12:38:41.567Z,4.20
2018-01-17T12:41:08.645Z,7.23
2018-01-17T12:43:34.942Z,2.20
2018-01-17T12:46:01.318Z,3.30
2018-01-17T12:48:28.369Z,6.63
2018-01-17T12:50:55.419Z,3.83
2018-01-17T12:53:21.686Z,12.40
2018-01-17T12:55:48.034Z,5.13
2018-01-17T12:58:15.110Z,3.33
2018-01-17T13:00:41.459Z,5.03
2018-01-17T13:03:07.767Z,7.80
2018-01-17T13:05:34.093Z,2.57
2018-01-17T13:08:00.438Z,7.57
2018-01-17T13:10:27.480Z,3.23
2018-01-17T13:12:53.765Z,3.90
2018-01-17T13:15:20.077Z,3.13
2018-01-17T13:17:47.105Z,8.53
2018-01-17T13:20:13.422Z,10.23
2018-01-17T13:22:39.699Z,4.83
2018-01-17T13:25:06.017Z,7.83
2018-01-17T13:27:32.305Z,10.33
2018-01-17T13:29:58.626Z,4.37
2018-01-17T13:32:24.955Z,3.57
2018-01-17T13:34:51.282Z,6.77
2018-01-17T13:37:18.395Z,5.67
2018-01-17T13:39:44.731Z,13.60
2018-01-17T13:42:11.102Z,6.07
2018-01-17T13:44:38.148Z,13.10
2018-01-17T13:47:04.434Z,8.87
2018-01-17T13:49:30.758Z,7.43
2018-01-17T13:51:57.093Z,8.53
2018-01-17T13:54:23.452Z,3.80
2018-01-17T13:56:49.728Z,8.03
2018-01-17T13:59:16.050Z,5.43
2018-01-17T14:01:42.800Z,6.80
2018-01-17T14:04:09.135Z,6.07
2018-01-17T14:06:35.488Z,7.40
2018-01-17T14:09:02.571Z,6.90
2018-01-17T14:11:28.846Z,4.10
2018-01-17T14:13:56.010Z,5.30
2018-01-17T14:16:22.323Z,6.07
2018-01-17T14:18:48.640Z,4.93
2018-01-17T14:21:19.252Z,6.17
2018-01-17T14:23:45.988Z,12.13
2018-01-17T14:26:12.638Z,7.60
2018-01-17T14:28:38.946Z,7.23
2018-01-17T14:31:15.598Z,10.43
2018-01-17T14:33:43.247Z,12.17
2018-01-17T14:36:12.392Z,3.10
2018-01-17T14:38:38.722Z,9.20
2018-01-17T14:41:04.982Z,6.97
2018-01-17T14:43:31.394Z,8.87
2018-01-17T14:45:57.809Z,9.10
2018-01-17T14:48:24.948Z,7.63
2018-01-17T14:50:53.617Z,5.40
2018-01-17T14:53:19.918Z,8.67
2018-01-17T14:55:46.299Z,7.77
2018-01-17T14:58:12.595Z,22.40
2018-01-17T15:00:39.606Z,9.60
2018-01-17T15:03:05.912Z,7.53
2018-01-17T15:05:32.211Z,4.67
2018-01-17T15:07:58.514Z,7.40
2018-01-17T15:10:24.874Z,10.63
2018-01-17T15:12:51.154Z,7.87
2018-01-17T15:15:17.669Z,8.20
2018-01-17T15:17:43.981Z,3.13
2018-01-17T15:20:10.327Z,6.70
2018-01-17T15:22:36.649Z,5.40
2018-01-17T15:25:02.978Z,7.70
2018-01-17T15:27:29.461Z,11.43
2018-01-17T15:29:56.642Z,10.33
2018-01-17T15:32:22.999Z,6.80
2018-01-17T15:34:49.615Z,8.30
2018-01-17T15:37:15.976Z,5.50
2018-01-17T15:39:42.887Z,10.50
2018-01-17T15:42:11.003Z,13.67
2018-01-17T15:44:37.283Z,4.23
2018-01-17T15:47:04.232Z,5.23
2018-01-17T15:49:32.112Z,7.83
2018-01-17T15:51:59.075Z,10.63
2018-01-17T15:54:25.389Z,12.00
2018-01-17T15:56:51.706Z,14.47
2018-01-17T15:59:18.107Z,11.63
2018-01-17T16:01:45.203Z,5.87
2018-01-17T16:04:12.457Z,6.93
2018-01-17T16:06:38.796Z,10.00
2018-01-17T16:09:05.106Z,11.10
2018-01-17T16:11:32.427Z,10.33
2018-01-17T16:13:59.501Z,12.27
2018-01-17T16:16:25.830Z,9.17
2018-01-17T16:18:52.563Z,13.80
2018-01-17T16:21:19.045Z,8.60
2018-01-17T16:23:47.869Z,10.50
2018-01-17T16:26:17.822Z,12.43
2018-01-17T16:28:44.207Z,4.30
2018-01-17T16:31:19.678Z,3.73
2018-01-17T16:33:52.337Z,12.87
2018-01-17T16:36:18.780Z,10.80
2018-01-17T16:38:45.400Z,10.67
2018-01-17T16:41:12.887Z,7.83
2018-01-17T16:43:39.321Z,13.97
2018-01-17T16:46:05.687Z,15.27
2018-01-17T16:48:32.019Z,4.30
2018-01-17T16:50:59.527Z,6.40
2018-01-17T16:53:26.336Z,9.67
2018-01-17T16:55:52.682Z,8.70
2018-01-17T16:58:20.240Z,8.77
2018-01-17T17:00:56.723Z,7.00
2018-01-17T17:03:23.126Z,13.83
2018-01-17T17:05:50.198Z,7.00
2018-01-17T17:08:16.478Z,10.30
2018-01-17T17:10:43.592Z,15.70
2018-01-17T17:13:09.920Z,6.23
2018-01-17T17:15:36.966Z,8.37
2018-01-17T17:18:04.017Z,10.80
2018-01-17T17:20:31.377Z,14.60
2018-01-17T17:22:57.739Z,11.33
2018-01-17T17:25:24.041Z,7.77
2018-01-17T17:27:50.338Z,8.87
2018-01-17T17:30:16.740Z,9.10
2018-01-17T17:32:43.049Z,12.10
2018-01-17T17:35:09.399Z,17.33
2018-01-17T17:37:36.079Z,7.03
2018-01-17T17:40:02.819Z,18.23
2018-01-17T17:42:30.504Z,21.07
2018-01-17T17:44:57.010Z,18.43
2018-01-17T17:47:23.372Z,13.27
2018-01-17T17:49:50.396Z,14.17
2018-01-17T17:52:16.716Z,14.53
2018-01-17T17:54:43.747Z,17.43
2018-01-17T17:57:10.248Z,14.47
2018-01-17T17:59:36.616Z,17.67
2018-01-17T18:02:03.450Z,12.37
2018-01-17T18:04:29.805Z,10.13
2018-01-17T18:06:56.440Z,12.37
2018-01-17T18:09:23.490Z,18.77
2018-01-17T18:11:49.847Z,12.10
2018-01-17T18:14:16.178Z,12.73
2018-01-17T18:16:42.545Z,11.00
2018-01-17T18:19:08.966Z,15.30
2018-01-17T18:21:36.474Z,17.40
2018-01-17T18:24:02.949Z,7.03
2018-01-17T18:26:29.484Z,18.53
2018-01-17T18:28:55.980Z,17.07
2018-01-17T18:31:22.446Z,10.70
2018-01-17T18:33:48.770Z,13.57
2018-01-17T18:36:17.227Z,16.43
2018-01-17T18:38:45.087Z,13.37
2018-01-17T18:41:12.225Z,14.37
2018-01-17T18:43:38.630Z,13.30
2018-01-17T18:46:04.989Z,12.13
2018-01-17T18:48:32.323Z,20.20
2018-01-17T18:50:59.833Z,15.30
2018-01-17T18:53:26.210Z,15.93
2018-01-17T18:55:56.149Z,13.10
2018-01-17T18:58:22.455Z,13.03
2018-01-17T19:00:48.813Z,16.93
2018-01-17T19:03:16.006Z,8.13
2018-01-17T19:05:42.738Z,12.27
2018-01-17T19:08:09.007Z,18.87
2018-01-17T19:10:36.185Z,11.10
2018-01-17T19:13:02.500Z,11.23
2018-01-17T19:15:28.831Z,13.90
2018-01-17T19:17:55.235Z,12.27
2018-01-17T19:20:21.572Z,10.20
2018-01-17T19:22:47.860Z,9.97
2018-01-17T19:25:14.453Z,19.67
2018-01-17T19:27:40.722Z,15.60
2018-01-17T19:30:07.081Z,20.33
2018-01-17T19:32:34.150Z,16.33
2018-01-17T19:35:00.490Z,12.73
2018-01-17T19:37:26.836Z,9.37
2018-01-17T19:39:53.870Z,6.13
2018-01-17T19:42:20.302Z,11.53
2018-01-17T19:44:46.908Z,8.77
2018-01-17T19:47:13.955Z,9.60
2018-01-17T19:49:40.323Z,13.33
2018-01-17T19:52:08.051Z,15.70
2018-01-17T19:54:34.701Z,8.83
2018-01-17T19:57:01.370Z,9.83
2018-01-17T19:59:27.916Z,12.90
2018-01-17T20:01:54.179Z,24.40
2018-01-17T20:04:20.453Z,15.83
2018-01-17T20:06:46.873Z,17.57
2018-01-17T20:09:13.050Z,11.93
2018-01-17T20:11:39.352Z,12.67
2018-01-17T20:14:06.369Z,15.03
2018-01-17T20:16:32.679Z,9.47
2018-01-17T20:18:58.995Z,15.93
2018-01-17T20:21:25.592Z,16.40
2018-01-17T20:23:51.957Z,9.63
2018-01-17T20:26:19.002Z,13.13
2018-01-17T20:28:45.397Z,9.13
2018-01-17T20:31:11.714Z,14.63
2018-01-17T20:33:38.728Z,17.70
2018-01-17T20:36:05.043Z,5.80
2018-01-17T20:38:31.383Z,9.33
2018-01-17T20:40:58.535Z,12.77
2018-01-17T20:43:24.969Z,12.50
2018-01-17T20:45:51.371Z,16.63
2018-01-17T20:48:17.686Z,12.53
2018-01-17T20:50:44.438Z,17.57
2018-01-17T20:53:10.977Z,13.97
2018-01-17T20:55:37.299Z,13.13
2018-01-17T20:58:03.700Z,12.47
2018-01-17T21:00:30.623Z,16.40
2018-01-17T21:02:57.000Z,20.33
2018-01-17T21:05:24.041Z,14.63
2018-01-17T21:07:51.317Z,18.83
2018-01-17T21:10:18.036Z,14.57
2018-01-17T21:12:44.359Z,18.73
2018-01-17T21:15:10.609Z,12.23
2018-01-17T21:17:36.979Z,10.83
2018-01-17T21:20:03.403Z,19.33
2018-01-17T21:22:30.681Z,20.73
2018-01-17T21:24:57.299Z,18.57
2018-01-17T21:27:23.573Z,16.50
2018-01-17T21:29:49.821Z,23.57
2018-01-17T21:32:16.296Z,17.57
2018-01-17T21:34:42.693Z,21.90
2018-01-17T21:37:09.014Z,21.53
2018-01-17T21:39:35.290Z,15.13
2018-01-17T21:42:01.698Z,18.23
2018-01-17T21:44:34.193Z,17.57
2018-01-17T21:47:00.464Z,12.63
2018-01-17T21:49:26.785Z,27.13
2018-01-17T21:51:53.124Z,16.43
2018-01-17T21:54:19.641Z,15.33
2018-01-17T21:56:46.139Z,20.67
2018-01-17T21:59:12.633Z,19.77
2018-01-17T22:01:38.950Z,24.63
2018-01-17T22:04:05.277Z,12.17
2018-01-17T22:06:31.593Z,24.53
2018-01-17T22:08:57.921Z,15.83
2018-01-17T22:11:24.599Z,16.03
2018-01-17T22:13:51.681Z,22.27
2018-01-17T22:16:17.944Z,18.23
2018-01-17T22:18:44.965Z,21.50
2018-01-17T22:21:11.305Z,30.63
2018-01-17T22:23:38.732Z,21.13
2018-01-17T22:26:05.204Z,17.10
2018-01-17T22:28:31.482Z,20.97
2018-01-17T22:30:57.774Z,18.27
2018-01-17T22:33:24.026Z,15.00
2018-01-17T22:35:50.389Z,23.00
2018-01-17T22:38:16.725Z,16.00
2018-01-17T22:40:42.993Z,19.43
2018-01-17T22:43:09.285Z,21.07
2018-01-17T22:45:36.984Z,13.77
2018-01-17T22:48:04.205Z,16.83
2018-01-17T22:50:30.530Z,17.93
2018-01-17T22:52:56.849Z,35.00
2018-01-17T22:55:24.158Z,19.37
2018-01-17T22:57:50.409Z,20.50
2018-01-17T23:00:18.587Z,20.87
2018-01-17T23:02:44.839Z,16.77
2018-01-17T23:05:11.998Z,14.03
2018-01-17T23:07:50.302Z,21.70
2018-01-17T23:10:16.780Z,19.93
2018-01-17T23:12:43.763Z,16.20
2018-01-17T23:15:10.037Z,14.00
2018-01-17T23:17:36.296Z,16.97
2018-01-17T23:20:02.606Z,9.73
2018-01-17T23:22:28.916Z,13.70
2018-01-17T23:24:55.364Z,14.10
2018-01-17T23:27:21.660Z,11.47
2018-01-17T23:29:47.985Z,13.53
2018-01-17T23:32:17.101Z,13.00
2018-01-17T23:34:44.103Z,14.43
2018-01-17T23:37:10.370Z,15.13
2018-01-17T23:39:41.228Z,7.10
2018-01-17T23:42:08.616Z,14.97
2018-01-17T23:44:35.944Z,10.07
2018-01-17T23:47:14.702Z,9.70
2018-01-17T23:49:40.976Z,16.30
2018-01-17T23:52:07.277Z,9.97
2018-01-17T23:54:34.500Z,12.90
2018-01-17T23:57:01.877Z,17.87
2018-01-17T23:59:51.323Z,10.43
